sensor_id;sensor_type;location;lat;lon;timestamp;P1;durP1;ratioP1;P2;durP2;ratioP2
21999;SDS011;11164;48.818;2.322;2023-03-19T00:01:27;3.45;;;1.83;;
21999;SDS011;11164;48.818;2.322;2023-03-19T00:03:52;4.63;;;1.92;;
21999;SDS011;11164;48.818;2.322;2023-03-19T00:06:18;5.25;;;1.80;;
21999;SDS011;11164;48.818;2.322;2023-03-19T00:08:43;3.45;;;1.90;;
21999;SDS011;11164;48.818;2.322;2023-03-19T00:11:10;4.88;;;2.15;;
21999;SDS011;11164;48.818;2.322;2023-03-19T00:13:36;4.93;;;1.50;;
21999;SDS011;11164;48.818;2.322;2023-03-19T00:16:02;4.53;;;1.70;;
21999;SDS011;11164;48.818;2.322;2023-03-19T00:18:28;4.60;;;1.60;;
21999;SDS011;11164;48.818;2.322;2023-03-19T00:20:54;6.63;;;1.73;;
21999;SDS011;11164;48.818;2.322;2023-03-19T00:23:20;5.97;;;1.83;;
21999;SDS011;11164;48.818;2.322;2023-03-19T00:25:45;3.63;;;1.52;;
21999;SDS011;11164;48.818;2.322;2023-03-19T00:28:10;3.50;;;1.55;;
21999;SDS011;11164;48.818;2.322;2023-03-19T00:30:36;5.38;;;1.50;;
21999;SDS011;11164;48.818;2.322;2023-03-19T00:33:01;3.92;;;1.70;;
21999;SDS011;11164;48.818;2.322;2023-03-19T00:35:26;4.93;;;1.60;;
21999;SDS011;11164;48.818;2.322;2023-03-19T00:37:52;5.15;;;1.80;;
21999;SDS011;11164;48.818;2.322;2023-03-19T00:40:19;4.38;;;1.88;;
21999;SDS011;11164;48.818;2.322;2023-03-19T00:42:44;4.22;;;1.70;;
21999;SDS011;11164;48.818;2.322;2023-03-19T00:45:10;5.10;;;1.73;;
21999;SDS011;11164;48.818;2.322;2023-03-19T00:47:37;3.72;;;1.65;;
21999;SDS011;11164;48.818;2.322;2023-03-19T00:50:03;4.78;;;1.95;;
21999;SDS011;11164;48.818;2.322;2023-03-19T00:52:29;5.80;;;2.10;;
21999;SDS011;11164;48.818;2.322;2023-03-19T00:54:54;5.60;;;1.60;;
21999;SDS011;11164;48.818;2.322;2023-03-19T00:57:20;6.00;;;1.98;;
21999;SDS011;11164;48.818;2.322;2023-03-19T00:59:46;4.32;;;1.80;;
21999;SDS011;11164;48.818;2.322;2023-03-19T01:02:12;4.75;;;2.17;;
21999;SDS011;11164;48.818;2.322;2023-03-19T01:04:37;4.50;;;2.00;;
21999;SDS011;11164;48.818;2.322;2023-03-19T01:07:02;5.60;;;2.10;;
21999;SDS011;11164;48.818;2.322;2023-03-19T01:09:28;5.25;;;2.10;;
21999;SDS011;11164;48.818;2.322;2023-03-19T01:11:54;4.25;;;2.00;;
21999;SDS011;11164;48.818;2.322;2023-03-19T01:14:19;6.32;;;2.22;;
21999;SDS011;11164;48.818;2.322;2023-03-19T01:16:45;6.40;;;2.05;;
21999;SDS011;11164;48.818;2.322;2023-03-19T01:19:10;8.18;;;2.20;;
21999;SDS011;11164;48.818;2.322;2023-03-19T01:21:36;5.43;;;2.15;;
21999;SDS011;11164;48.818;2.322;2023-03-19T01:24:02;4.65;;;2.13;;
21999;SDS011;11164;48.818;2.322;2023-03-19T01:26:27;4.63;;;1.95;;
21999;SDS011;11164;48.818;2.322;2023-03-19T01:28:53;4.28;;;2.00;;
21999;SDS011;11164;48.818;2.322;2023-03-19T01:31:18;5.78;;;2.40;;
21999;SDS011;11164;48.818;2.322;2023-03-19T01:33:44;5.03;;;2.10;;
21999;SDS011;11164;48.818;2.322;2023-03-19T01:36:09;5.07;;;1.85;;
21999;SDS011;11164;48.818;2.322;2023-03-19T01:38:35;4.22;;;2.20;;
21999;SDS011;11164;48.818;2.322;2023-03-19T01:41:00;4.65;;;2.35;;
21999;SDS011;11164;48.818;2.322;2023-03-19T01:43:26;5.93;;;2.53;;
21999;SDS011;11164;48.818;2.322;2023-03-19T01:46:14;7.82;;;2.15;;
21999;SDS011;11164;48.818;2.322;2023-03-19T01:48:49;3.53;;;2.00;;
21999;SDS011;11164;48.818;2.322;2023-03-19T01:51:19;6.00;;;2.40;;
21999;SDS011;11164;48.818;2.322;2023-03-19T01:53:50;4.43;;;2.28;;
21999;SDS011;11164;48.818;2.322;2023-03-19T01:56:23;4.60;;;2.38;;
21999;SDS011;11164;48.818;2.322;2023-03-19T01:58:55;5.63;;;2.20;;
21999;SDS011;11164;48.818;2.322;2023-03-19T02:01:25;6.75;;;2.25;;
21999;SDS011;11164;48.818;2.322;2023-03-19T02:03:52;4.30;;;2.50;;
21999;SDS011;11164;48.818;2.322;2023-03-19T02:06:18;4.35;;;2.50;;
21999;SDS011;11164;48.818;2.322;2023-03-19T02:08:45;5.35;;;2.30;;
21999;SDS011;11164;48.818;2.322;2023-03-19T02:11:12;4.35;;;2.20;;
21999;SDS011;11164;48.818;2.322;2023-03-19T02:13:38;6.80;;;2.70;;
21999;SDS011;11164;48.818;2.322;2023-03-19T02:16:03;4.88;;;1.92;;
21999;SDS011;11164;48.818;2.322;2023-03-19T02:18:29;7.97;;;2.13;;
21999;SDS011;11164;48.818;2.322;2023-03-19T02:23:34;6.13;;;2.40;;
21999;SDS011;11164;48.818;2.322;2023-03-19T02:28:37;4.22;;;2.20;;
21999;SDS011;11164;48.818;2.322;2023-03-19T02:31:06;8.27;;;2.28;;
21999;SDS011;11164;48.818;2.322;2023-03-19T02:33:32;5.57;;;2.42;;
21999;SDS011;11164;48.818;2.322;2023-03-19T02:35:58;6.50;;;2.80;;
21999;SDS011;11164;48.818;2.322;2023-03-19T02:38:26;5.15;;;2.80;;
21999;SDS011;11164;48.818;2.322;2023-03-19T02:40:58;6.07;;;2.63;;
21999;SDS011;11164;48.818;2.322;2023-03-19T02:43:26;8.07;;;2.40;;
21999;SDS011;11164;48.818;2.322;2023-03-19T02:45:51;5.25;;;2.40;;
21999;SDS011;11164;48.818;2.322;2023-03-19T02:48:17;4.82;;;2.33;;
21999;SDS011;11164;48.818;2.322;2023-03-19T02:50:43;6.82;;;2.92;;
21999;SDS011;11164;48.818;2.322;2023-03-19T02:53:09;4.68;;;2.63;;
21999;SDS011;11164;48.818;2.322;2023-03-19T02:55:34;6.13;;;2.45;;
21999;SDS011;11164;48.818;2.322;2023-03-19T02:58:00;7.13;;;2.85;;
21999;SDS011;11164;48.818;2.322;2023-03-19T03:00:26;6.00;;;2.50;;
21999;SDS011;11164;48.818;2.322;2023-03-19T03:02:52;7.00;;;2.80;;
21999;SDS011;11164;48.818;2.322;2023-03-19T03:05:20;7.88;;;2.60;;
21999;SDS011;11164;48.818;2.322;2023-03-19T03:07:45;5.78;;;2.70;;
21999;SDS011;11164;48.818;2.322;2023-03-19T03:10:11;6.13;;;2.50;;
21999;SDS011;11164;48.818;2.322;2023-03-19T03:12:36;6.85;;;2.78;;
21999;SDS011;11164;48.818;2.322;2023-03-19T03:15:03;5.53;;;2.80;;
21999;SDS011;11164;48.818;2.322;2023-03-19T03:17:29;7.15;;;2.83;;
21999;SDS011;11164;48.818;2.322;2023-03-19T03:19:55;5.05;;;2.55;;
21999;SDS011;11164;48.818;2.322;2023-03-19T03:22:20;6.95;;;2.63;;
21999;SDS011;11164;48.818;2.322;2023-03-19T03:24:46;4.93;;;2.50;;
21999;SDS011;11164;48.818;2.322;2023-03-19T03:27:11;7.10;;;2.83;;
21999;SDS011;11164;48.818;2.322;2023-03-19T03:29:36;5.88;;;2.78;;
21999;SDS011;11164;48.818;2.322;2023-03-19T03:32:02;5.68;;;3.10;;
21999;SDS011;11164;48.818;2.322;2023-03-19T03:34:27;4.97;;;3.03;;
21999;SDS011;11164;48.818;2.322;2023-03-19T03:36:52;6.57;;;3.55;;
21999;SDS011;11164;48.818;2.322;2023-03-19T03:39:18;6.13;;;3.30;;
21999;SDS011;11164;48.818;2.322;2023-03-19T03:41:43;6.18;;;2.85;;
21999;SDS011;11164;48.818;2.322;2023-03-19T03:44:09;6.28;;;3.00;;
21999;SDS011;11164;48.818;2.322;2023-03-19T03:46:34;7.85;;;3.33;;
21999;SDS011;11164;48.818;2.322;2023-03-19T03:49:00;5.72;;;3.20;;
21999;SDS011;11164;48.818;2.322;2023-03-19T03:51:25;5.72;;;2.78;;
21999;SDS011;11164;48.818;2.322;2023-03-19T03:53:51;7.35;;;3.03;;
21999;SDS011;11164;48.818;2.322;2023-03-19T03:56:16;5.55;;;3.08;;
21999;SDS011;11164;48.818;2.322;2023-03-19T03:58:42;9.57;;;3.47;;
21999;SDS011;11164;48.818;2.322;2023-03-19T04:01:08;4.97;;;3.10;;
21999;SDS011;11164;48.818;2.322;2023-03-19T04:03:39;7.07;;;3.00;;
21999;SDS011;11164;48.818;2.322;2023-03-19T04:06:05;6.75;;;2.88;;
21999;SDS011;11164;48.818;2.322;2023-03-19T04:08:31;5.82;;;3.10;;
21999;SDS011;11164;48.818;2.322;2023-03-19T04:10:56;5.20;;;3.00;;
21999;SDS011;11164;48.818;2.322;2023-03-19T04:13:22;6.80;;;3.40;;
21999;SDS011;11164;48.818;2.322;2023-03-19T04:15:48;6.53;;;3.25;;
21999;SDS011;11164;48.818;2.322;2023-03-19T04:18:13;7.25;;;3.20;;
21999;SDS011;11164;48.818;2.322;2023-03-19T04:20:39;4.95;;;3.05;;
21999;SDS011;11164;48.818;2.322;2023-03-19T04:23:05;7.68;;;3.47;;
21999;SDS011;11164;48.818;2.322;2023-03-19T04:25:30;8.38;;;3.50;;
21999;SDS011;11164;48.818;2.322;2023-03-19T04:27:57;8.15;;;3.45;;
21999;SDS011;11164;48.818;2.322;2023-03-19T04:30:23;7.03;;;3.65;;
21999;SDS011;11164;48.818;2.322;2023-03-19T04:32:49;6.75;;;3.97;;
21999;SDS011;11164;48.818;2.322;2023-03-19T04:35:15;7.65;;;3.72;;
21999;SDS011;11164;48.818;2.322;2023-03-19T04:37:42;7.45;;;4.20;;
21999;SDS011;11164;48.818;2.322;2023-03-19T04:40:12;8.25;;;4.05;;
21999;SDS011;11164;48.818;2.322;2023-03-19T04:42:38;8.38;;;4.53;;
21999;SDS011;11164;48.818;2.322;2023-03-19T04:45:03;7.60;;;4.35;;
21999;SDS011;11164;48.818;2.322;2023-03-19T04:47:29;8.93;;;4.38;;
21999;SDS011;11164;48.818;2.322;2023-03-19T04:49:55;7.70;;;4.32;;
21999;SDS011;11164;48.818;2.322;2023-03-19T04:52:20;6.40;;;4.35;;
21999;SDS011;11164;48.818;2.322;2023-03-19T04:54:45;7.05;;;4.70;;
21999;SDS011;11164;48.818;2.322;2023-03-19T04:57:11;8.25;;;4.80;;
21999;SDS011;11164;48.818;2.322;2023-03-19T04:59:36;9.02;;;5.40;;
21999;SDS011;11164;48.818;2.322;2023-03-19T05:02:01;9.70;;;5.07;;
21999;SDS011;11164;48.818;2.322;2023-03-19T05:04:27;9.82;;;5.40;;
21999;SDS011;11164;48.818;2.322;2023-03-19T05:06:52;9.98;;;5.35;;
21999;SDS011;11164;48.818;2.322;2023-03-19T05:09:18;8.48;;;5.07;;
21999;SDS011;11164;48.818;2.322;2023-03-19T05:11:43;10.95;;;5.68;;
21999;SDS011;11164;48.818;2.322;2023-03-19T05:14:09;11.50;;;5.93;;
21999;SDS011;11164;48.818;2.322;2023-03-19T05:16:34;10.20;;;5.70;;
21999;SDS011;11164;48.818;2.322;2023-03-19T05:18:59;9.98;;;5.70;;
21999;SDS011;11164;48.818;2.322;2023-03-19T05:21:25;11.95;;;5.82;;
21999;SDS011;11164;48.818;2.322;2023-03-19T05:23:50;8.35;;;5.80;;
21999;SDS011;11164;48.818;2.322;2023-03-19T05:26:18;10.50;;;5.70;;
21999;SDS011;11164;48.818;2.322;2023-03-19T05:28:44;10.63;;;6.53;;
21999;SDS011;11164;48.818;2.322;2023-03-19T05:31:09;11.45;;;6.25;;
21999;SDS011;11164;48.818;2.322;2023-03-19T05:33:35;10.93;;;6.43;;
21999;SDS011;11164;48.818;2.322;2023-03-19T05:36:00;14.70;;;6.68;;
21999;SDS011;11164;48.818;2.322;2023-03-19T05:38:26;12.32;;;6.55;;
21999;SDS011;11164;48.818;2.322;2023-03-19T05:40:51;11.75;;;6.90;;
21999;SDS011;11164;48.818;2.322;2023-03-19T05:43:16;11.15;;;7.03;;
21999;SDS011;11164;48.818;2.322;2023-03-19T05:45:42;11.82;;;7.20;;
21999;SDS011;11164;48.818;2.322;2023-03-19T05:48:07;12.10;;;6.97;;
21999;SDS011;11164;48.818;2.322;2023-03-19T05:50:33;11.90;;;6.80;;
21999;SDS011;11164;48.818;2.322;2023-03-19T05:52:59;13.85;;;7.20;;
21999;SDS011;11164;48.818;2.322;2023-03-19T05:55:24;14.73;;;7.78;;
21999;SDS011;11164;48.818;2.322;2023-03-19T05:57:50;13.13;;;7.10;;
21999;SDS011;11164;48.818;2.322;2023-03-19T06:00:16;16.30;;;7.18;;
21999;SDS011;11164;48.818;2.322;2023-03-19T06:02:42;14.10;;;7.15;;
21999;SDS011;11164;48.818;2.322;2023-03-19T06:05:08;12.52;;;7.97;;
21999;SDS011;11164;48.818;2.322;2023-03-19T06:07:34;14.85;;;7.82;;
21999;SDS011;11164;48.818;2.322;2023-03-19T06:10:00;14.35;;;7.60;;
21999;SDS011;11164;48.818;2.322;2023-03-19T06:12:25;14.27;;;7.72;;
21999;SDS011;11164;48.818;2.322;2023-03-19T06:14:51;15.98;;;8.32;;
21999;SDS011;11164;48.818;2.322;2023-03-19T06:17:16;14.07;;;7.45;;
21999;SDS011;11164;48.818;2.322;2023-03-19T06:19:42;12.85;;;7.40;;
21999;SDS011;11164;48.818;2.322;2023-03-19T06:22:07;13.90;;;7.75;;
21999;SDS011;11164;48.818;2.322;2023-03-19T06:24:32;14.52;;;7.20;;
21999;SDS011;11164;48.818;2.322;2023-03-19T06:26:58;11.60;;;7.47;;
21999;SDS011;11164;48.818;2.322;2023-03-19T06:29:23;12.77;;;7.65;;
21999;SDS011;11164;48.818;2.322;2023-03-19T06:31:49;13.43;;;7.60;;
21999;SDS011;11164;48.818;2.322;2023-03-19T06:34:15;13.23;;;7.80;;
21999;SDS011;11164;48.818;2.322;2023-03-19T06:36:41;12.70;;;7.45;;
21999;SDS011;11164;48.818;2.322;2023-03-19T06:39:06;11.50;;;7.20;;
21999;SDS011;11164;48.818;2.322;2023-03-19T06:41:31;10.52;;;7.03;;
21999;SDS011;11164;48.818;2.322;2023-03-19T06:43:57;13.73;;;7.90;;
21999;SDS011;11164;48.818;2.322;2023-03-19T06:46:22;13.40;;;8.10;;
21999;SDS011;11164;48.818;2.322;2023-03-19T06:48:48;10.77;;;7.22;;
21999;SDS011;11164;48.818;2.322;2023-03-19T06:51:13;12.18;;;7.45;;
21999;SDS011;11164;48.818;2.322;2023-03-19T06:53:38;16.45;;;8.52;;
21999;SDS011;11164;48.818;2.322;2023-03-19T06:56:04;15.02;;;8.02;;
21999;SDS011;11164;48.818;2.322;2023-03-19T06:58:30;12.60;;;7.93;;
21999;SDS011;11164;48.818;2.322;2023-03-19T07:00:55;15.07;;;7.60;;
21999;SDS011;11164;48.818;2.322;2023-03-19T07:03:20;15.65;;;7.53;;
21999;SDS011;11164;48.818;2.322;2023-03-19T07:05:47;13.13;;;8.30;;
21999;SDS011;11164;48.818;2.322;2023-03-19T07:08:15;14.98;;;7.25;;
21999;SDS011;11164;48.818;2.322;2023-03-19T07:10:40;13.20;;;7.68;;
21999;SDS011;11164;48.818;2.322;2023-03-19T07:13:06;11.15;;;7.57;;
21999;SDS011;11164;48.818;2.322;2023-03-19T07:15:32;12.13;;;7.55;;
21999;SDS011;11164;48.818;2.322;2023-03-19T07:17:57;10.75;;;6.97;;
21999;SDS011;11164;48.818;2.322;2023-03-19T07:20:23;12.48;;;7.18;;
21999;SDS011;11164;48.818;2.322;2023-03-19T07:22:51;11.35;;;6.80;;
21999;SDS011;11164;48.818;2.322;2023-03-19T07:25:17;10.75;;;6.88;;
21999;SDS011;11164;48.818;2.322;2023-03-19T07:27:43;11.40;;;6.63;;
21999;SDS011;11164;48.818;2.322;2023-03-19T07:30:09;10.55;;;6.18;;
21999;SDS011;11164;48.818;2.322;2023-03-19T07:32:36;14.63;;;6.72;;
21999;SDS011;11164;48.818;2.322;2023-03-19T07:35:02;12.00;;;6.72;;
21999;SDS011;11164;48.818;2.322;2023-03-19T07:37:29;11.48;;;5.93;;
21999;SDS011;11164;48.818;2.322;2023-03-19T07:39:55;11.60;;;6.32;;
21999;SDS011;11164;48.818;2.322;2023-03-19T07:42:21;10.55;;;6.07;;
21999;SDS011;11164;48.818;2.322;2023-03-19T07:44:46;8.55;;;5.13;;
21999;SDS011;11164;48.818;2.322;2023-03-19T07:47:11;12.48;;;4.90;;
21999;SDS011;11164;48.818;2.322;2023-03-19T07:49:37;8.07;;;4.88;;
21999;SDS011;11164;48.818;2.322;2023-03-19T07:52:02;10.88;;;5.57;;
21999;SDS011;11164;48.818;2.322;2023-03-19T07:54:28;10.82;;;5.03;;
21999;SDS011;11164;48.818;2.322;2023-03-19T07:56:54;8.77;;;4.65;;
21999;SDS011;11164;48.818;2.322;2023-03-19T07:59:20;10.35;;;4.20;;
21999;SDS011;11164;48.818;2.322;2023-03-19T08:01:45;9.38;;;4.40;;
21999;SDS011;11164;48.818;2.322;2023-03-19T08:04:10;7.60;;;3.78;;
21999;SDS011;11164;48.818;2.322;2023-03-19T08:06:36;7.03;;;4.40;;
21999;SDS011;11164;48.818;2.322;2023-03-19T08:09:02;7.35;;;4.10;;
21999;SDS011;11164;48.818;2.322;2023-03-19T08:11:27;8.18;;;4.30;;
21999;SDS011;11164;48.818;2.322;2023-03-19T08:13:54;9.38;;;4.30;;
21999;SDS011;11164;48.818;2.322;2023-03-19T08:16:19;7.45;;;3.70;;
21999;SDS011;11164;48.818;2.322;2023-03-19T08:18:45;7.70;;;3.95;;
21999;SDS011;11164;48.818;2.322;2023-03-19T08:21:10;8.05;;;3.92;;
21999;SDS011;11164;48.818;2.322;2023-03-19T08:23:36;8.35;;;4.20;;
21999;SDS011;11164;48.818;2.322;2023-03-19T08:26:01;7.65;;;3.95;;
21999;SDS011;11164;48.818;2.322;2023-03-19T08:28:26;8.07;;;3.78;;
21999;SDS011;11164;48.818;2.322;2023-03-19T08:30:52;8.10;;;3.80;;
21999;SDS011;11164;48.818;2.322;2023-03-19T08:33:17;6.68;;;3.58;;
21999;SDS011;11164;48.818;2.322;2023-03-19T08:35:43;9.93;;;3.58;;
21999;SDS011;11164;48.818;2.322;2023-03-19T08:38:08;9.13;;;3.40;;
21999;SDS011;11164;48.818;2.322;2023-03-19T08:40:35;8.25;;;3.20;;
21999;SDS011;11164;48.818;2.322;2023-03-19T08:43:00;8.60;;;3.15;;
21999;SDS011;11164;48.818;2.322;2023-03-19T08:45:25;10.35;;;3.22;;
21999;SDS011;11164;48.818;2.322;2023-03-19T08:47:51;8.57;;;3.05;;
21999;SDS011;11164;48.818;2.322;2023-03-19T08:50:16;8.15;;;3.15;;
21999;SDS011;11164;48.818;2.322;2023-03-19T08:52:42;8.25;;;3.20;;
21999;SDS011;11164;48.818;2.322;2023-03-19T08:55:08;6.47;;;3.20;;
21999;SDS011;11164;48.818;2.322;2023-03-19T08:57:34;6.38;;;3.22;;
21999;SDS011;11164;48.818;2.322;2023-03-19T09:00:00;9.82;;;3.50;;
21999;SDS011;11164;48.818;2.322;2023-03-19T09:02:29;8.88;;;3.45;;
21999;SDS011;11164;48.818;2.322;2023-03-19T09:04:54;9.02;;;3.60;;
21999;SDS011;11164;48.818;2.322;2023-03-19T09:07:20;8.93;;;3.30;;
21999;SDS011;11164;48.818;2.322;2023-03-19T09:09:46;7.65;;;3.40;;
21999;SDS011;11164;48.818;2.322;2023-03-19T09:12:13;9.00;;;3.83;;
21999;SDS011;11164;48.818;2.322;2023-03-19T09:14:40;7.05;;;3.42;;
21999;SDS011;11164;48.818;2.322;2023-03-19T09:17:06;8.20;;;3.45;;
21999;SDS011;11164;48.818;2.322;2023-03-19T09:19:32;7.25;;;3.33;;
21999;SDS011;11164;48.818;2.322;2023-03-19T09:21:58;5.38;;;2.90;;
21999;SDS011;11164;48.818;2.322;2023-03-19T09:24:24;5.47;;;2.80;;
21999;SDS011;11164;48.818;2.322;2023-03-19T09:26:50;7.60;;;3.30;;
21999;SDS011;11164;48.818;2.322;2023-03-19T09:29:15;6.28;;;3.13;;
21999;SDS011;11164;48.818;2.322;2023-03-19T09:31:41;9.18;;;3.45;;
21999;SDS011;11164;48.818;2.322;2023-03-19T09:34:06;9.65;;;3.80;;
21999;SDS011;11164;48.818;2.322;2023-03-19T09:36:33;11.63;;;6.22;;
21999;SDS011;11164;48.818;2.322;2023-03-19T09:38:59;5.72;;;3.25;;
21999;SDS011;11164;48.818;2.322;2023-03-19T09:41:30;7.43;;;3.50;;
21999;SDS011;11164;48.818;2.322;2023-03-19T09:44:24;8.35;;;3.50;;
21999;SDS011;11164;48.818;2.322;2023-03-19T09:50:03;6.85;;;3.25;;
21999;SDS011;11164;48.818;2.322;2023-03-19T09:52:45;5.50;;;2.97;;
21999;SDS011;11164;48.818;2.322;2023-03-19T10:00:24;5.72;;;2.70;;
21999;SDS011;11164;48.818;2.322;2023-03-19T10:16:48;6.75;;;2.70;;
21999;SDS011;11164;48.818;2.322;2023-03-19T10:19:20;6.72;;;3.60;;
21999;SDS011;11164;48.818;2.322;2023-03-19T10:21:56;6.90;;;2.70;;
21999;SDS011;11164;48.818;2.322;2023-03-19T10:26:58;3.90;;;1.83;;
21999;SDS011;11164;48.818;2.322;2023-03-19T10:29:26;5.32;;;2.13;;
21999;SDS011;11164;48.818;2.322;2023-03-19T10:34:41;5.28;;;2.60;;
21999;SDS011;11164;48.818;2.322;2023-03-19T10:37:13;5.75;;;2.75;;
21999;SDS011;11164;48.818;2.322;2023-03-19T10:39:50;5.85;;;3.25;;
21999;SDS011;11164;48.818;2.322;2023-03-19T10:47:59;8.24;;;5.00;;
21999;SDS011;11164;48.818;2.322;2023-03-19T10:50:59;8.38;;;4.63;;
21999;SDS011;11164;48.818;2.322;2023-03-19T10:53:30;8.20;;;5.10;;
21999;SDS011;11164;48.818;2.322;2023-03-19T10:58:41;12.10;;;6.22;;
21999;SDS011;11164;48.818;2.322;2023-03-19T11:01:37;11.77;;;6.57;;
21999;SDS011;11164;48.818;2.322;2023-03-19T11:04:19;11.10;;;6.90;;
21999;SDS011;11164;48.818;2.322;2023-03-19T11:06:50;13.02;;;7.03;;
21999;SDS011;11164;48.818;2.322;2023-03-19T11:09:34;11.98;;;6.60;;
21999;SDS011;11164;48.818;2.322;2023-03-19T11:12:21;12.63;;;6.95;;
21999;SDS011;11164;48.818;2.322;2023-03-19T11:14:58;11.32;;;7.10;;
21999;SDS011;11164;48.818;2.322;2023-03-19T11:17:37;8.55;;;4.72;;
21999;SDS011;11164;48.818;2.322;2023-03-19T11:20:26;7.30;;;4.68;;
21999;SDS011;11164;48.818;2.322;2023-03-19T11:22:54;4.65;;;1.92;;
21999;SDS011;11164;48.818;2.322;2023-03-19T11:25:37;4.80;;;1.73;;
21999;SDS011;11164;48.818;2.322;2023-03-19T11:28:15;5.75;;;2.10;;
21999;SDS011;11164;48.818;2.322;2023-03-19T11:53:41;4.43;;;1.88;;
21999;SDS011;11164;48.818;2.322;2023-03-19T11:56:22;4.43;;;1.50;;
21999;SDS011;11164;48.818;2.322;2023-03-19T12:10:06;3.85;;;1.80;;
21999;SDS011;11164;48.818;2.322;2023-03-19T12:12:45;4.07;;;1.90;;
21999;SDS011;11164;48.818;2.322;2023-03-19T12:15:23;4.32;;;1.73;;
21999;SDS011;11164;48.818;2.322;2023-03-19T12:20:55;20.55;;;9.05;;
21999;SDS011;11164;48.818;2.322;2023-03-19T12:23:52;5.15;;;1.73;;
21999;SDS011;11164;48.818;2.322;2023-03-19T12:26:50;5.32;;;1.83;;
21999;SDS011;11164;48.818;2.322;2023-03-19T12:29:46;3.60;;;1.70;;
21999;SDS011;11164;48.818;2.322;2023-03-19T12:32:30;5.68;;;1.60;;
21999;SDS011;11164;48.818;2.322;2023-03-19T12:35:05;4.05;;;1.60;;
21999;SDS011;11164;48.818;2.322;2023-03-19T12:37:50;5.18;;;1.50;;
21999;SDS011;11164;48.818;2.322;2023-03-19T12:40:27;6.15;;;1.85;;
21999;SDS011;11164;48.818;2.322;2023-03-19T12:43:10;3.22;;;1.48;;
21999;SDS011;11164;48.818;2.322;2023-03-19T12:45:43;5.53;;;2.00;;
21999;SDS011;11164;48.818;2.322;2023-03-19T12:48:22;4.40;;;1.65;;
21999;SDS011;11164;48.818;2.322;2023-03-19T12:50:53;5.15;;;1.85;;
21999;SDS011;11164;48.818;2.322;2023-03-19T12:53:34;4.68;;;1.75;;
21999;SDS011;11164;48.818;2.322;2023-03-19T12:56:07;4.57;;;1.70;;
21999;SDS011;11164;48.818;2.322;2023-03-19T13:01:26;3.45;;;1.60;;
21999;SDS011;11164;48.818;2.322;2023-03-19T13:06:40;4.97;;;1.90;;
21999;SDS011;11164;48.818;2.322;2023-03-19T13:17:45;4.40;;;2.00;;
21999;SDS011;11164;48.818;2.322;2023-03-19T13:22:53;3.40;;;1.60;;
21999;SDS011;11164;48.818;2.322;2023-03-19T13:25:26;4.90;;;1.50;;
21999;SDS011;11164;48.818;2.322;2023-03-19T13:27:57;5.63;;;1.55;;
21999;SDS011;11164;48.818;2.322;2023-03-19T13:30:23;4.80;;;1.70;;
21999;SDS011;11164;48.818;2.322;2023-03-19T13:32:51;6.43;;;2.00;;
21999;SDS011;11164;48.818;2.322;2023-03-19T13:41:03;6.32;;;2.30;;
21999;SDS011;11164;48.818;2.322;2023-03-19T13:46:04;6.50;;;1.80;;
21999;SDS011;11164;48.818;2.322;2023-03-19T13:48:52;6.72;;;1.65;;
21999;SDS011;11164;48.818;2.322;2023-03-19T13:53:51;3.63;;;1.75;;
21999;SDS011;11164;48.818;2.322;2023-03-19T13:57:31;4.22;;;1.40;;
21999;SDS011;11164;48.818;2.322;2023-03-19T14:01:50;2.83;;;1.10;;
21999;SDS011;11164;48.818;2.322;2023-03-19T14:06:48;5.45;;;1.77;;
21999;SDS011;11164;48.818;2.322;2023-03-19T14:12:11;3.05;;;1.25;;
21999;SDS011;11164;48.818;2.322;2023-03-19T14:17:25;3.72;;;1.20;;
21999;SDS011;11164;48.818;2.322;2023-03-19T14:19:55;3.22;;;1.10;;
21999;SDS011;11164;48.818;2.322;2023-03-19T14:22:34;3.33;;;1.20;;
21999;SDS011;11164;48.818;2.322;2023-03-19T14:25:21;4.47;;;1.13;;
21999;SDS011;11164;48.818;2.322;2023-03-19T14:27:54;4.78;;;1.08;;
21999;SDS011;11164;48.818;2.322;2023-03-19T14:32:48;5.90;;;1.38;;
21999;SDS011;11164;48.818;2.322;2023-03-19T14:35:16;3.95;;;1.20;;
21999;SDS011;11164;48.818;2.322;2023-03-19T14:37:48;5.95;;;1.27;;
21999;SDS011;11164;48.818;2.322;2023-03-19T14:40:20;2.05;;;0.80;;
21999;SDS011;11164;48.818;2.322;2023-03-19T14:42:59;2.90;;;1.10;;
21999;SDS011;11164;48.818;2.322;2023-03-19T14:48:15;2.83;;;0.93;;
21999;SDS011;11164;48.818;2.322;2023-03-19T14:56:02;4.55;;;1.25;;
21999;SDS011;11164;48.818;2.322;2023-03-19T14:58:36;2.83;;;1.10;;
21999;SDS011;11164;48.818;2.322;2023-03-19T15:01:10;3.70;;;1.17;;
21999;SDS011;11164;48.818;2.322;2023-03-19T15:03:36;4.20;;;1.20;;
21999;SDS011;11164;48.818;2.322;2023-03-19T15:06:03;4.53;;;1.15;;
21999;SDS011;11164;48.818;2.322;2023-03-19T15:08:31;3.38;;;1.15;;
21999;SDS011;11164;48.818;2.322;2023-03-19T15:18:59;3.95;;;1.25;;
21999;SDS011;11164;48.818;2.322;2023-03-19T15:21:25;5.13;;;1.45;;
21999;SDS011;11164;48.818;2.322;2023-03-19T15:23:53;5.45;;;1.60;;
21999;SDS011;11164;48.818;2.322;2023-03-19T15:26:31;4.80;;;1.30;;
21999;SDS011;11164;48.818;2.322;2023-03-19T15:28:59;5.25;;;1.50;;
21999;SDS011;11164;48.818;2.322;2023-03-19T15:31:39;3.65;;;1.40;;
21999;SDS011;11164;48.818;2.322;2023-03-19T15:34:18;4.55;;;1.48;;
21999;SDS011;11164;48.818;2.322;2023-03-19T15:36:45;3.83;;;1.30;;
21999;SDS011;11164;48.818;2.322;2023-03-19T15:39:14;4.90;;;1.50;;
21999;SDS011;11164;48.818;2.322;2023-03-19T15:41:43;5.43;;;1.88;;
21999;SDS011;11164;48.818;2.322;2023-03-19T15:44:14;4.25;;;1.35;;
21999;SDS011;11164;48.818;2.322;2023-03-19T15:46:43;3.08;;;1.20;;
21999;SDS011;11164;48.818;2.322;2023-03-19T15:49:11;4.72;;;1.42;;
21999;SDS011;11164;48.818;2.322;2023-03-19T15:51:50;3.58;;;1.20;;
21999;SDS011;11164;48.818;2.322;2023-03-19T15:54:21;2.83;;;1.20;;
21999;SDS011;11164;48.818;2.322;2023-03-19T15:56:48;4.68;;;1.45;;
21999;SDS011;11164;48.818;2.322;2023-03-19T15:59:16;5.25;;;1.20;;
21999;SDS011;11164;48.818;2.322;2023-03-19T16:01:44;4.90;;;1.20;;
21999;SDS011;11164;48.818;2.322;2023-03-19T16:04:14;4.75;;;1.10;;
21999;SDS011;11164;48.818;2.322;2023-03-19T16:06:46;5.50;;;1.25;;
21999;SDS011;11164;48.818;2.322;2023-03-19T16:09:24;4.40;;;1.02;;
21999;SDS011;11164;48.818;2.322;2023-03-19T16:11:52;2.88;;;0.85;;
21999;SDS011;11164;48.818;2.322;2023-03-19T16:14:26;4.65;;;1.13;;
21999;SDS011;11164;48.818;2.322;2023-03-19T16:17:16;3.40;;;1.13;;
21999;SDS011;11164;48.818;2.322;2023-03-19T16:19:51;4.40;;;1.30;;
21999;SDS011;11164;48.818;2.322;2023-03-19T16:22:20;2.53;;;0.93;;
21999;SDS011;11164;48.818;2.322;2023-03-19T16:24:48;5.13;;;1.30;;
21999;SDS011;11164;48.818;2.322;2023-03-19T16:27:17;4.47;;;1.20;;
21999;SDS011;11164;48.818;2.322;2023-03-19T16:32:23;4.60;;;1.15;;
21999;SDS011;11164;48.818;2.322;2023-03-19T16:42:37;3.78;;;1.00;;
21999;SDS011;11164;48.818;2.322;2023-03-19T16:47:47;3.72;;;1.10;;
21999;SDS011;11164;48.818;2.322;2023-03-19T16:50:15;4.80;;;1.02;;
21999;SDS011;11164;48.818;2.322;2023-03-19T16:52:42;3.53;;;0.93;;
21999;SDS011;11164;48.818;2.322;2023-03-19T16:57:43;2.78;;;0.80;;
21999;SDS011;11164;48.818;2.322;2023-03-19T17:00:11;4.13;;;1.13;;
21999;SDS011;11164;48.818;2.322;2023-03-19T17:02:37;3.30;;;0.93;;
21999;SDS011;11164;48.818;2.322;2023-03-19T17:05:08;3.45;;;1.00;;
21999;SDS011;11164;48.818;2.322;2023-03-19T17:07:38;5.30;;;1.38;;
21999;SDS011;11164;48.818;2.322;2023-03-19T17:10:05;4.35;;;1.02;;
21999;SDS011;11164;48.818;2.322;2023-03-19T17:12:33;3.67;;;1.15;;
21999;SDS011;11164;48.818;2.322;2023-03-19T17:14:59;3.22;;;1.00;;
21999;SDS011;11164;48.818;2.322;2023-03-19T17:17:24;3.72;;;0.90;;
21999;SDS011;11164;48.818;2.322;2023-03-19T17:19:50;3.33;;;0.90;;
21999;SDS011;11164;48.818;2.322;2023-03-19T17:22:16;6.05;;;0.90;;
21999;SDS011;11164;48.818;2.322;2023-03-19T17:24:42;2.83;;;0.98;;